createdAt,value
2018-08-03T04:10:08.568Z,500
2018-08-03T04:10:34.061Z,512
2018-08-03T04:10:59.628Z,524
2018-08-03T04:11:25.031Z,532
2018-08-03T04:11:50.504Z,548
2018-08-03T04:12:15.985Z,560
2018-08-03T04:12:41.422Z,568
2018-08-03T04:13:06.907Z,584
2018-08-03T04:13:32.390Z,600
2018-08-03T04:13:57.932Z,612
2018-08-03T04:14:23.343Z,624
2018-08-03T04:14:48.833Z,636
2018-08-03T04:15:14.264Z,648
2018-08-03T04:15:39.745Z,660
2018-08-03T04:16:05.187Z,676
2018-08-03T04:16:30.647Z,688
2018-08-03T04:16:56.117Z,700
2018-08-03T04:17:21.627Z,716
2018-08-03T04:17:47.128Z,728
2018-08-03T04:18:12.539Z,744
2018-08-03T04:18:38.026Z,760
2018-08-03T04:19:03.474Z,772
2018-08-03T04:19:28.973Z,788
2018-08-03T04:19:54.488Z,800
2018-08-03T04:20:19.995Z,816
2018-08-03T04:20:45.489Z,828
2018-08-03T04:21:11.000Z,848
2018-08-03T04:21:36.491Z,860
2018-08-03T04:22:01.985Z,876
2018-08-03T04:22:27.466Z,892
2018-08-03T04:22:52.966Z,908
2018-08-03T04:23:18.472Z,924
2018-08-03T04:23:43.980Z,936
2018-08-03T04:24:09.476Z,952
2018-08-03T04:24:34.947Z,972
2018-08-03T04:25:00.483Z,984
2018-08-03T04:25:25.949Z,1000
2018-08-03T04:25:51.493Z,1020
2018-08-03T04:26:16.937Z,1032
2018-08-03T04:26:42.433Z,1052
2018-08-03T04:27:07.998Z,1068
2018-08-03T04:27:33.470Z,1084
2018-08-03T04:27:58.956Z,1104
2018-08-03T04:28:24.475Z,1116
2018-08-03T04:28:49.978Z,1136
2018-08-03T04:29:15.464Z,1152
2018-08-03T04:29:41.026Z,1168
2018-08-03T04:30:06.563Z,1184
2018-08-03T04:30:32.033Z,1200
2018-08-03T04:30:57.537Z,1216
2018-08-03T04:31:23.080Z,1232
2018-08-03T04:31:48.560Z,1244
2018-08-03T04:32:14.057Z,1260
2018-08-03T04:32:39.542Z,1276
2018-08-03T04:33:05.058Z,1288
2018-08-03T04:33:30.554Z,1300
2018-08-03T04:33:56.056Z,1320
2018-08-03T04:34:21.559Z,1332
2018-08-03T04:34:47.049Z,1348
2018-08-03T04:35:12.551Z,1360
2018-08-03T04:35:38.049Z,1376
2018-08-03T04:36:03.520Z,1392
2018-08-03T04:36:29.082Z,1408
2018-08-03T04:36:54.613Z,1428
2018-08-03T04:37:20.266Z,1448
2018-08-03T04:37:46.038Z,1464
2018-08-03T04:38:11.587Z,1480
2018-08-03T04:38:37.142Z,1504
2018-08-03T04:39:02.758Z,1520
2018-08-03T04:39:28.208Z,1540
2018-08-03T04:39:53.729Z,1556
2018-08-03T04:40:19.288Z,1572
2018-08-03T04:41:38.228Z,1636
2018-08-03T04:42:03.754Z,1652
2018-08-03T04:42:29.268Z,1676
2018-08-03T04:42:54.750Z,1704
2018-08-03T04:43:20.236Z,1728
2018-08-03T04:43:45.736Z,1756
2018-08-03T04:44:11.235Z,1788
2018-08-03T04:44:36.707Z,1816
2018-08-03T04:45:02.233Z,1844
2018-08-03T04:45:27.687Z,1876
2018-08-03T04:45:53.187Z,1900
2018-08-03T04:46:18.714Z,1924
2018-08-03T04:46:44.190Z,1956
2018-08-03T04:47:09.692Z,1988
2018-08-03T04:47:35.172Z,2020
2018-08-03T04:48:00.674Z,2048
2018-08-03T04:48:26.164Z,2080
2018-08-03T04:48:51.655Z,2108
2018-08-03T04:49:17.195Z,2140
2018-08-03T04:49:42.668Z,2168
2018-08-03T04:50:08.135Z,2192
2018-08-03T04:50:33.605Z,2216
2018-08-03T04:50:59.107Z,2240
2018-08-03T04:51:24.590Z,2260
2018-08-03T04:51:50.098Z,2280
2018-08-03T04:52:15.577Z,2304
2018-08-03T04:52:41.085Z,2328
2018-08-03T04:53:06.596Z,2348
2018-08-03T04:53:32.124Z,2368
2018-08-03T04:53:57.632Z,2388
2018-08-03T04:54:23.115Z,2412
2018-08-03T04:54:48.655Z,2428
2018-08-03T04:55:14.120Z,2452
2018-08-03T04:55:39.604Z,2472
2018-08-03T04:56:05.093Z,2496
2018-08-03T04:56:30.560Z,2516
2018-08-03T04:56:56.026Z,2536
2018-08-03T04:57:21.592Z,2556
2018-08-03T04:57:47.065Z,2576
2018-08-03T04:58:12.571Z,2596
2018-08-03T04:58:38.090Z,2620
2018-08-03T04:59:03.580Z,2640
2018-08-03T04:59:29.090Z,2656
2018-08-03T04:59:54.595Z,2680
2018-08-03T05:00:20.069Z,2700
2018-08-03T05:00:45.561Z,2724
2018-08-03T05:01:11.072Z,2748
2018-08-03T05:01:36.571Z,2764
2018-08-03T05:02:02.079Z,2788
2018-08-03T05:02:27.597Z,2808
2018-08-03T05:02:53.090Z,2828
2018-08-03T05:03:18.642Z,2844
2018-08-03T05:03:44.192Z,3292
2018-08-03T05:04:09.686Z,3316
2018-08-03T05:04:35.206Z,3340
2018-08-03T05:05:00.640Z,3372
2018-08-03T05:05:26.175Z,3400
2018-08-03T05:05:51.674Z,3424
2018-08-03T05:06:17.181Z,3452
2018-08-03T05:07:36.135Z,3544
2018-08-03T05:08:01.622Z,3572
2018-08-03T05:08:27.131Z,3604
2018-08-03T05:08:52.647Z,3632
2018-08-03T05:09:18.118Z,3660
2018-08-03T05:09:43.629Z,3684
2018-08-03T05:10:09.121Z,3712
2018-08-03T05:10:34.614Z,3736
2018-08-03T05:11:00.091Z,3764
2018-08-03T05:11:25.571Z,3784
2018-08-03T05:11:51.050Z,3812
2018-08-03T05:12:16.537Z,3836
2018-08-03T05:12:42.048Z,3864
2018-08-03T05:13:07.556Z,3892
2018-08-03T05:13:33.048Z,3924
2018-08-03T05:13:58.590Z,3952
2018-08-03T05:14:24.080Z,3976
2018-08-03T05:14:49.590Z,4004
2018-08-03T05:15:15.067Z,4032
2018-08-03T05:15:40.583Z,4056
2018-08-03T05:16:06.081Z,4084
2018-08-03T05:16:31.601Z,4116
2018-08-03T05:16:57.066Z,4144
2018-08-03T05:17:22.520Z,4176
2018-08-03T05:17:48.060Z,4196
2018-08-03T05:18:13.535Z,4224
2018-08-03T05:18:39.034Z,4252
2018-08-03T05:19:04.531Z,4280
2018-08-03T05:19:30.005Z,4308
2018-08-03T05:19:55.472Z,4328
2018-08-03T05:20:20.969Z,4356
2018-08-03T05:20:46.462Z,4380
2018-08-03T05:21:11.935Z,4404
2018-08-03T05:21:37.435Z,4420
2018-08-03T05:22:02.937Z,4444
2018-08-03T05:22:28.425Z,4472
2018-08-03T05:22:53.892Z,4492
2018-08-03T05:23:19.412Z,4524
2018-08-03T05:23:44.904Z,4548
2018-08-03T05:24:10.435Z,4576
2018-08-03T05:24:35.942Z,4608
2018-08-03T05:25:01.409Z,4648
2018-08-03T05:25:26.913Z,4680
2018-08-03T05:25:52.409Z,4720
2018-08-03T05:26:17.896Z,4752
2018-08-03T05:26:43.385Z,4792
2018-08-03T05:27:08.866Z,4824
2018-08-03T05:27:34.377Z,4864
2018-08-03T05:27:59.860Z,4900
2018-08-03T05:28:25.337Z,4940
2018-08-03T05:28:50.825Z,4988
2018-08-03T05:29:16.355Z,5032
2018-08-03T05:29:41.812Z,5080
2018-08-03T05:30:07.302Z,5136
2018-08-03T05:30:32.819Z,5184
2018-08-03T05:30:58.310Z,5224
2018-08-03T05:31:23.840Z,5272
2018-08-03T05:31:49.358Z,5304
2018-08-03T05:32:58.078Z,5392
2018-08-03T05:33:23.572Z,5440
2018-08-03T05:33:49.082Z,5500
2018-08-03T05:34:14.563Z,5604
2018-08-03T05:34:40.053Z,5788
2018-08-03T05:35:05.522Z,6108
2018-08-03T05:35:31.073Z,6552
2018-08-03T05:35:56.620Z,7176
2018-08-03T05:36:22.093Z,8016
2018-08-03T05:36:47.501Z,8892
2018-08-03T05:37:12.988Z,9612
2018-08-03T05:37:38.512Z,10188
2018-08-03T05:38:04.030Z,10324
2018-08-03T05:38:29.528Z,9988
2018-08-03T05:38:55.019Z,9360
2018-08-03T05:39:20.502Z,8596
2018-08-03T05:39:46.000Z,7832
2018-08-03T05:40:11.505Z,7268
2018-08-03T05:40:36.975Z,6916
2018-08-03T05:41:02.432Z,6728
2018-08-03T05:41:27.941Z,6636
2018-08-03T05:41:53.426Z,6600
2018-08-03T05:42:18.924Z,6572
2018-08-03T05:42:44.431Z,6560
2018-08-03T05:43:09.911Z,6560
2018-08-03T05:43:35.426Z,6560
2018-08-03T05:44:00.940Z,6580
2018-08-03T05:44:26.417Z,6568
2018-08-03T05:44:51.903Z,6572
2018-08-03T05:45:17.444Z,6576
2018-08-03T05:45:42.943Z,6576
2018-08-03T05:46:08.420Z,6584
2018-08-03T05:46:33.876Z,6572
2018-08-03T05:46:59.368Z,6576
2018-08-03T05:47:24.895Z,6584
2018-08-03T05:47:50.434Z,6604
2018-08-03T05:48:15.931Z,6640
2018-08-03T05:48:41.439Z,6680
2018-08-03T05:49:06.948Z,6736
2018-08-03T05:49:32.425Z,6804
2018-08-03T05:49:57.940Z,6860
2018-08-03T05:50:23.519Z,6940
2018-08-03T05:50:48.970Z,6980
2018-08-03T05:52:02.838Z,7000
2018-08-03T05:52:28.431Z,6968
2018-08-03T05:52:53.805Z,6920
2018-08-03T05:53:19.292Z,6892
2018-08-03T05:53:44.786Z,6876
2018-08-03T05:54:10.289Z,6868
2018-08-03T05:54:35.856Z,6868
2018-08-03T05:55:01.386Z,6884
2018-08-03T05:55:26.891Z,6904
2018-08-03T05:55:52.435Z,6932
2018-08-03T05:56:17.973Z,6948
2018-08-03T05:56:43.446Z,6976
2018-08-03T05:57:08.970Z,7016
2018-08-03T05:57:34.479Z,7060
2018-08-03T05:57:59.996Z,7120
2018-08-03T05:58:25.522Z,7164
2018-08-03T05:58:51.001Z,7188
2018-08-03T05:59:16.473Z,7224
2018-08-03T05:59:41.990Z,7280
2018-08-03T06:00:07.487Z,7300
2018-08-03T06:00:32.964Z,7340
2018-08-03T06:00:58.469Z,7356
2018-08-03T06:01:23.991Z,7364
2018-08-03T06:01:49.466Z,7360
2018-08-03T06:02:14.970Z,7376
2018-08-03T06:03:18.616Z,7428
2018-08-03T06:03:44.141Z,7444
2018-08-03T06:04:09.632Z,7464
2018-08-03T06:04:35.135Z,7460
2018-08-03T06:05:00.622Z,7448
2018-08-03T06:05:26.142Z,7440
2018-08-03T06:05:51.639Z,7432
2018-08-03T06:06:17.161Z,7412
2018-08-03T06:06:42.640Z,7408
2018-08-03T06:07:08.131Z,7444
2018-08-03T06:07:33.675Z,7492
2018-08-03T06:07:59.130Z,7552
2018-08-03T06:08:24.676Z,7628
2018-08-03T06:08:50.159Z,7684
2018-08-03T06:09:15.728Z,7712
2018-08-03T06:09:41.256Z,7716
2018-08-03T06:10:06.700Z,7724
2018-08-03T06:10:32.183Z,7716
2018-08-03T06:10:57.675Z,7700
2018-08-03T06:11:23.183Z,7724
2018-08-03T06:11:48.737Z,7760
2018-08-03T06:12:14.245Z,7796
2018-08-03T06:12:39.736Z,7824
2018-08-03T06:13:05.241Z,7876
2018-08-03T06:13:30.777Z,7936
2018-08-03T06:13:56.339Z,7988
2018-08-03T06:14:21.859Z,8036
2018-08-03T06:14:47.392Z,8076
2018-08-03T06:15:12.879Z,8144
2018-08-03T06:15:38.373Z,8192
2018-08-03T06:16:03.830Z,8252
2018-08-03T06:16:29.338Z,8284
2018-08-03T06:16:54.886Z,8336
2018-08-03T06:17:20.365Z,8368
2018-08-03T06:17:45.816Z,8408
2018-08-03T06:18:11.240Z,8420
2018-08-03T06:18:36.762Z,8424
2018-08-03T06:19:02.223Z,8396
2018-08-03T06:19:27.756Z,8348
2018-08-03T06:19:53.209Z,8332
2018-08-03T06:20:18.835Z,8308
2018-08-03T06:20:44.217Z,8312
2018-08-03T06:21:09.637Z,8320
2018-08-03T06:21:35.126Z,8344
2018-08-03T06:22:00.583Z,8352
2018-08-03T06:22:26.068Z,8396
2018-08-03T06:22:51.534Z,8532
2018-08-03T06:23:17.032Z,8680
2018-08-03T06:23:42.447Z,8856
2018-08-03T06:24:08.012Z,9036
2018-08-03T06:24:33.421Z,9288
2018-08-03T06:24:58.899Z,9536
2018-08-03T06:25:24.391Z,9820
2018-08-03T06:25:49.880Z,10060
2018-08-03T06:26:15.395Z,10248
2018-08-03T06:26:40.869Z,10344
2018-08-03T06:27:06.365Z,10384
2018-08-03T06:27:31.825Z,10424
2018-08-03T06:27:57.304Z,10408
2018-08-03T06:28:22.767Z,10396
2018-08-03T06:28:48.262Z,10332
2018-08-03T06:29:13.720Z,10304
2018-08-03T06:29:39.287Z,10296
2018-08-03T06:30:04.690Z,10280
2018-08-03T06:30:30.219Z,10260
2018-08-03T06:30:55.695Z,10264
2018-08-03T06:31:21.219Z,10264
2018-08-03T06:31:46.719Z,10244
2018-08-03T06:32:12.207Z,10248
2018-08-03T06:32:37.646Z,10272
2018-08-03T06:33:03.121Z,10376
2018-08-03T06:33:28.577Z,10452
2018-08-03T06:33:54.031Z,10552
2018-08-03T06:34:19.570Z,10692
2018-08-03T06:34:45.018Z,10696
2018-08-03T06:35:10.510Z,10584
2018-08-03T06:35:35.977Z,10304
2018-08-03T06:36:01.457Z,9940
2018-08-03T06:36:26.972Z,9584
2018-08-03T06:36:52.445Z,9268
2018-08-03T06:37:17.908Z,9132
2018-08-03T06:37:43.384Z,9148
2018-08-03T06:38:08.900Z,9264
2018-08-03T06:38:34.396Z,9448
2018-08-03T06:38:59.893Z,9668
2018-08-03T06:39:25.343Z,9908
2018-08-03T06:39:50.841Z,10172
2018-08-03T06:40:16.308Z,10380
2018-08-03T06:40:41.844Z,10540
2018-08-03T06:41:07.356Z,10668
2018-08-03T06:41:32.828Z,10728
2018-08-03T06:41:58.297Z,10816
2018-08-03T06:42:23.782Z,10848
2018-08-03T06:42:49.232Z,10944
2018-08-03T06:43:14.708Z,11000
2018-08-03T06:43:40.195Z,11048
2018-08-03T06:44:05.737Z,11060
2018-08-03T06:44:31.214Z,10976
2018-08-03T06:44:56.700Z,10832
2018-08-03T06:45:22.142Z,10572
2018-08-03T06:45:47.658Z,10216
2018-08-03T06:46:13.155Z,9832
2018-08-03T06:46:38.607Z,9452
2018-08-03T06:47:04.089Z,9132
2018-08-03T06:47:29.575Z,8884
2018-08-03T06:47:55.093Z,8700
2018-08-03T06:48:20.629Z,8552
2018-08-03T06:48:46.070Z,8428
2018-08-03T06:49:11.575Z,8324
2018-08-03T06:49:37.046Z,8224
2018-08-03T06:50:02.547Z,8140
2018-08-03T06:50:28.048Z,8060
2018-08-03T06:50:53.530Z,7996
2018-08-03T06:51:19.013Z,7936
2018-08-03T06:51:44.486Z,7876
2018-08-03T06:52:09.945Z,7824
2018-08-03T06:52:35.480Z,7776
2018-08-03T06:53:00.903Z,7736
2018-08-03T06:53:26.399Z,7688
2018-08-03T06:53:51.939Z,7344
2018-08-03T06:54:17.418Z,7596
2018-08-03T06:54:42.851Z,7548
2018-08-03T06:55:08.303Z,7500
2018-08-03T06:55:33.844Z,7452
2018-08-03T06:55:59.453Z,7408
2018-08-03T06:56:24.804Z,7368
2018-08-03T06:56:50.297Z,7336
2018-08-03T06:57:15.809Z,7312
2018-08-03T06:57:41.343Z,7284
2018-08-03T06:58:06.842Z,7268
2018-08-03T06:58:32.294Z,7248
2018-08-03T06:58:57.845Z,7232
2018-08-03T06:59:23.275Z,7216
2018-08-03T06:59:48.820Z,7208
2018-08-03T07:00:14.238Z,7204
2018-08-03T07:00:39.752Z,7220
2018-08-03T07:01:05.252Z,7240
2018-08-03T07:01:30.714Z,7272
2018-08-03T07:01:56.200Z,7304
2018-08-03T07:02:21.677Z,7344
2018-08-03T07:02:47.242Z,7376
2018-08-03T07:03:12.644Z,7400
2018-08-03T07:03:38.158Z,7428
2018-08-03T07:04:03.612Z,7460
2018-08-03T07:04:29.237Z,7488
2018-08-03T07:04:54.623Z,7512
2018-08-03T07:05:20.121Z,7544
2018-08-03T07:05:45.556Z,7568
2018-08-03T07:06:11.099Z,7596
2018-08-03T07:06:36.488Z,7628
2018-08-03T07:07:01.979Z,7660
2018-08-03T07:07:27.423Z,7692
2018-08-03T07:07:52.969Z,7724
2018-08-03T07:08:18.428Z,7764
2018-08-03T07:08:43.948Z,7792
2018-08-03T07:09:09.426Z,7832
2018-08-03T07:09:34.916Z,7876
2018-08-03T07:10:00.343Z,7912
2018-08-03T07:10:25.818Z,7964
2018-08-03T07:10:51.347Z,8012
2018-08-03T07:11:16.827Z,8080
2018-08-03T07:11:42.312Z,8144
2018-08-03T07:12:07.746Z,8252
2018-08-03T07:12:33.224Z,8392
2018-08-03T07:12:58.774Z,8640
2018-08-03T07:13:24.185Z,9428
2018-08-03T07:13:49.640Z,11888
2018-08-03T07:14:15.113Z,15308
2018-08-03T07:14:40.675Z,18944
2018-08-03T07:15:06.048Z,22688
2018-08-03T07:15:31.521Z,25568
2018-08-03T07:15:57.041Z,28256
2018-08-03T07:16:22.484Z,30080
2018-08-03T07:16:48.088Z,31136
2018-08-03T07:17:13.563Z,31200
2018-08-03T07:17:39.043Z,31424
2018-08-03T07:18:04.489Z,31104
2018-08-03T07:18:29.927Z,30336
2018-08-03T07:18:55.455Z,29952
2018-08-03T07:19:20.956Z,28992
2018-08-03T07:19:46.387Z,28448
2018-08-03T07:20:11.939Z,27328
2018-08-03T07:20:37.452Z,26848
2018-08-03T07:21:02.865Z,25888
2018-08-03T07:21:28.321Z,25216
2018-08-03T07:21:53.817Z,24480
2018-08-03T07:22:19.309Z,24032
2018-08-03T07:22:44.827Z,23520
2018-08-03T07:23:10.289Z,23040
2018-08-03T07:23:35.823Z,22688
2018-08-03T07:24:01.258Z,22528
2018-08-03T07:24:26.758Z,22240
2018-08-03T07:24:52.254Z,21792
2018-08-03T07:25:17.726Z,21536
2018-08-03T07:25:43.218Z,21440
2018-08-03T07:26:08.748Z,21024
2018-08-03T07:26:34.208Z,20736
2018-08-03T07:26:59.679Z,20512
2018-08-03T07:27:25.198Z,20416
2018-08-03T07:27:50.673Z,20448
2018-08-03T07:28:16.164Z,20128
2018-08-03T07:28:41.646Z,20000
2018-08-03T07:29:07.139Z,19744
2018-08-03T07:29:32.638Z,19648
2018-08-03T07:29:58.141Z,19232
2018-08-03T07:30:23.679Z,18624
2018-08-03T07:30:49.176Z,17440
2018-08-03T07:31:14.705Z,16224
2018-08-03T07:31:40.263Z,14956
2018-08-03T07:32:05.648Z,13944
2018-08-03T07:32:31.177Z,13032
2018-08-03T07:32:56.688Z,12396
2018-08-03T07:34:21.517Z,11600
2018-08-03T07:34:47.006Z,11564
2018-08-03T07:35:12.487Z,11520
2018-08-03T07:35:37.961Z,11508
2018-08-03T07:36:03.474Z,11412
2018-08-03T07:36:28.975Z,11244
2018-08-03T07:36:54.474Z,10968
2018-08-03T07:37:19.894Z,10648
2018-08-03T07:37:45.382Z,10296
2018-08-03T07:38:10.879Z,10040
2018-08-03T07:38:36.356Z,9804
2018-08-03T07:39:01.855Z,9520
2018-08-03T07:39:27.328Z,9340
2018-08-03T07:39:52.839Z,9224
2018-08-03T07:40:18.349Z,9152
2018-08-03T07:40:43.821Z,9100
2018-08-03T07:41:09.363Z,9028
2018-08-03T07:41:34.785Z,9000
2018-08-03T07:42:00.284Z,8924
2018-08-03T07:42:26.034Z,8844
2018-08-03T07:42:51.270Z,8784
2018-08-03T07:43:16.801Z,8732
2018-08-03T07:43:42.196Z,8680
2018-08-03T07:44:07.748Z,8628
2018-08-03T07:44:33.185Z,8576
2018-08-03T07:44:58.731Z,8560
2018-08-03T07:45:24.185Z,8520
2018-08-03T07:45:49.716Z,8460
2018-08-03T07:46:15.073Z,8372
2018-08-03T07:46:40.594Z,8296
2018-08-03T07:47:06.056Z,8244
2018-08-03T07:47:31.703Z,8212
2018-08-03T07:47:57.167Z,8164
2018-08-03T07:48:22.685Z,8132
2018-08-03T07:48:48.216Z,8100
2018-08-03T07:49:13.665Z,8032
2018-08-03T07:49:39.118Z,7964
2018-08-03T07:50:04.631Z,7896
2018-08-03T07:50:30.108Z,7816
2018-08-03T07:50:55.618Z,7784
2018-08-03T07:51:21.070Z,7720
2018-08-03T07:51:46.605Z,7692
2018-08-03T07:52:12.026Z,7636
2018-08-03T07:52:37.677Z,7592
2018-08-03T07:53:03.036Z,7556
2018-08-03T07:53:28.468Z,7516
2018-08-03T07:53:53.970Z,7484
2018-08-03T07:54:19.403Z,7444
2018-08-03T07:54:44.893Z,7412
2018-08-03T07:55:10.392Z,7396
2018-08-03T07:55:35.852Z,7368
2018-08-03T07:56:01.359Z,7332
2018-08-03T07:56:26.885Z,7292
2018-08-03T07:57:50.926Z,7392
2018-08-03T07:58:16.420Z,7576
2018-08-03T07:58:41.940Z,7728
2018-08-03T07:59:07.438Z,7800
2018-08-03T07:59:32.899Z,7736
2018-08-03T07:59:58.403Z,7588
2018-08-03T08:00:23.913Z,7404
2018-08-03T08:00:49.436Z,7256
2018-08-03T08:01:14.927Z,7192
2018-08-03T08:01:40.469Z,7172
2018-08-03T08:02:05.954Z,7148
2018-08-03T08:02:31.505Z,7136
2018-08-03T08:02:56.975Z,7120
2018-08-03T08:03:22.472Z,7104
2018-08-03T08:03:48.008Z,7084
2018-08-03T08:04:13.503Z,7060
2018-08-03T08:04:38.998Z,7048
2018-08-03T08:05:04.487Z,7020
2018-08-03T08:05:29.995Z,6992
2018-08-03T08:05:55.505Z,6972
2018-08-03T08:06:20.988Z,6956
2018-08-03T08:06:46.497Z,6936
2018-08-03T08:07:12.014Z,6920
2018-08-03T08:07:37.535Z,6900
2018-08-03T08:08:03.003Z,6888
2018-08-03T08:08:28.519Z,6876
2018-08-03T08:08:54.028Z,6876
2018-08-03T08:09:19.519Z,6872
2018-08-03T08:09:45.071Z,6868
2018-08-03T08:10:10.474Z,6852
2018-08-03T08:10:36.067Z,6844
2018-08-03T08:11:01.582Z,6828
2018-08-03T08:11:27.069Z,6820
2018-08-03T08:11:52.574Z,6808
2018-08-03T08:12:18.072Z,6796
2018-08-03T08:12:43.568Z,6776
2018-08-03T08:13:09.063Z,6772
2018-08-03T08:13:34.603Z,6760
2018-08-03T08:14:00.090Z,6748
2018-08-03T08:14:25.603Z,6744
2018-08-03T08:14:51.095Z,6744
2018-08-03T08:15:16.654Z,6752
2018-08-03T08:15:42.171Z,6752
2018-08-03T08:16:07.590Z,6764
2018-08-03T08:16:33.137Z,6788
2018-08-03T08:16:58.699Z,6840
2018-08-03T08:17:24.128Z,6888
2018-08-03T08:17:49.644Z,6936
2018-08-03T08:18:15.126Z,6960
2018-08-03T08:18:40.665Z,6984
2018-08-03T08:19:06.228Z,6996
2018-08-03T08:19:31.774Z,7008
2018-08-03T08:19:57.341Z,7000
2018-08-03T08:20:22.806Z,6992
2018-08-03T08:20:48.336Z,6980
2018-08-03T08:21:13.860Z,6968
2018-08-03T08:21:39.336Z,6964
2018-08-03T08:22:04.856Z,6960
2018-08-03T08:22:30.390Z,6964
2018-08-03T08:22:55.858Z,6984
2018-08-03T08:23:21.372Z,7012
2018-08-03T08:23:46.946Z,7016
2018-08-03T08:24:12.432Z,7020
2018-08-03T08:25:16.108Z,6948
2018-08-03T08:26:40.276Z,6792
2018-08-03T08:27:05.712Z,6728
2018-08-03T08:27:31.232Z,6672
2018-08-03T08:27:56.725Z,6616
2018-08-03T08:28:22.221Z,6572
2018-08-03T08:28:47.756Z,6528
2018-08-03T08:29:13.284Z,6484
2018-08-03T08:29:38.807Z,6436
2018-08-03T08:30:04.307Z,6392
2018-08-03T08:30:29.816Z,6364
2018-08-03T08:30:55.342Z,6328
2018-08-03T08:31:20.961Z,6308
2018-08-03T08:31:46.430Z,6276
2018-08-03T08:32:11.924Z,6252
2018-08-03T08:32:37.415Z,6232
2018-08-03T08:33:02.919Z,6196
2018-08-03T08:33:28.470Z,6160
2018-08-03T08:33:53.896Z,6116
2018-08-03T08:34:19.456Z,6072
2018-08-03T08:34:44.914Z,6028
2018-08-03T08:35:10.483Z,5980
2018-08-03T08:35:36.132Z,5948
2018-08-03T08:36:01.458Z,5912
2018-08-03T08:36:26.978Z,5876
2018-08-03T08:36:52.536Z,5848
2018-08-03T08:37:17.981Z,5828
2018-08-03T08:37:43.552Z,5804
2018-08-03T08:38:09.036Z,5784
2018-08-03T08:38:34.553Z,5768
2018-08-03T08:39:00.110Z,5756
2018-08-03T08:39:25.622Z,5748
2018-08-03T08:39:51.165Z,5728
2018-08-03T08:40:16.655Z,5708
2018-08-03T08:40:42.182Z,5688
2018-08-03T08:41:07.675Z,5664
2018-08-03T08:41:33.207Z,5648
2018-08-03T08:41:58.745Z,5640
2018-08-03T08:42:24.263Z,5632
2018-08-03T08:42:49.764Z,5628
2018-08-03T08:43:15.264Z,5616
2018-08-03T08:43:40.944Z,5620
2018-08-03T08:44:06.403Z,5616
2018-08-03T08:44:31.940Z,5612
2018-08-03T08:44:57.433Z,5608
2018-08-03T08:45:22.913Z,5604
2018-08-03T08:45:48.454Z,5596
2018-08-03T08:46:14.067Z,5588
2018-08-03T08:46:39.579Z,5584
2018-08-03T08:47:05.110Z,5584
2018-08-03T08:47:30.649Z,5580
2018-08-03T08:47:56.166Z,5576
2018-08-03T08:48:21.675Z,5572
2018-08-03T08:48:47.166Z,5568
2018-08-03T08:49:12.748Z,5560
2018-08-03T08:49:38.223Z,5552
2018-08-03T08:50:03.765Z,5548
2018-08-03T08:51:27.822Z,5528
2018-08-03T08:51:53.326Z,5524
2018-08-03T08:52:18.800Z,5520
2018-08-03T08:52:44.430Z,5512
2018-08-03T08:53:09.997Z,5504
2018-08-03T08:53:35.473Z,5496
2018-08-03T08:54:00.997Z,5488
2018-08-03T08:54:26.550Z,5488
2018-08-03T08:54:52.092Z,5484
2018-08-03T08:55:17.499Z,5472
2018-08-03T08:55:43.012Z,5464
2018-08-03T08:56:08.495Z,5460
2018-08-03T08:56:34.030Z,5456
2018-08-03T08:56:59.563Z,5452
2018-08-03T08:57:25.074Z,5452
2018-08-03T08:57:50.575Z,5452
2018-08-03T08:58:16.079Z,5448
2018-08-03T08:58:41.576Z,5448
2018-08-03T08:59:07.138Z,5440
2018-08-03T09:00:11.337Z,5424
2018-08-03T09:00:37.146Z,5416
2018-08-03T09:01:02.721Z,5396
2018-08-03T09:01:28.179Z,5388
2018-08-03T09:01:53.612Z,5380
2018-08-03T09:02:19.064Z,5376
2018-08-03T09:02:44.657Z,5384
2018-08-03T09:03:10.181Z,5372
2018-08-03T09:03:35.677Z,5368
2018-08-03T09:04:01.137Z,5356
2018-08-03T09:04:26.686Z,5360
2018-08-03T09:04:52.151Z,5356
2018-08-03T09:05:17.744Z,5348
2018-08-03T09:05:43.337Z,5328
2018-08-03T09:06:09.284Z,5324
2018-08-03T09:06:34.810Z,5312
2018-08-03T09:07:00.247Z,5304
2018-08-03T09:07:25.781Z,5296
2018-08-03T09:07:51.235Z,5288
2018-08-03T09:08:16.748Z,5276
2018-08-03T09:08:42.220Z,5268
2018-08-03T09:09:07.758Z,5260
2018-08-03T09:10:16.532Z,5236
2018-08-03T09:10:42.041Z,5232
2018-08-03T09:11:07.543Z,5232
2018-08-03T09:11:33.034Z,5224
2018-08-03T09:11:58.540Z,5220
2018-08-03T09:12:24.090Z,5212
2018-08-03T09:12:49.693Z,5208
2018-08-03T09:13:15.250Z,5208
2018-08-03T09:13:40.682Z,5192
2018-08-03T09:14:54.495Z,5148
2018-08-03T09:15:20.041Z,5136
2018-08-03T09:15:45.611Z,5120
2018-08-03T09:16:11.090Z,5108
2018-08-03T09:16:36.590Z,5096
2018-08-03T09:17:02.136Z,5092
2018-08-03T09:17:27.615Z,5084
2018-08-03T09:17:53.146Z,5068
2018-08-03T09:18:18.776Z,5060
2018-08-03T09:18:44.259Z,5056
2018-08-03T09:19:09.800Z,5056
2018-08-03T09:19:35.472Z,5064
2018-08-03T09:20:00.930Z,5064
2018-08-03T09:20:26.460Z,5068
2018-08-03T09:20:51.954Z,5072
2018-08-03T09:21:17.443Z,5076
2018-08-03T09:21:42.906Z,5072
2018-08-03T09:22:08.522Z,5072
2018-08-03T09:22:33.963Z,5076
2018-08-03T09:22:59.465Z,5080
2018-08-03T09:23:24.954Z,5076
2018-08-03T09:23:50.492Z,5076
2018-08-03T09:24:15.987Z,5076
2018-08-03T09:24:41.563Z,5064
2018-08-03T09:25:07.016Z,5060
2018-08-03T09:25:32.538Z,5048
2018-08-03T09:25:58.032Z,5048
2018-08-03T09:26:23.602Z,5052
2018-08-03T09:26:49.099Z,5044
2018-08-03T09:27:14.624Z,5036
2018-08-03T09:27:40.118Z,5020
2018-08-03T09:28:05.575Z,5012
2018-08-03T09:28:31.151Z,5012
2018-08-03T09:28:56.600Z,5012
2018-08-03T09:29:22.098Z,5008
2018-08-03T09:29:47.599Z,5004
2018-08-03T09:30:13.098Z,5000
2018-08-03T09:30:38.660Z,4988
2018-08-03T09:31:04.159Z,4984
2018-08-03T09:31:29.585Z,4984
2018-08-03T09:31:55.082Z,4984
2018-08-03T09:32:20.585Z,4980
2018-08-03T09:32:46.103Z,4972
2018-08-03T09:33:11.592Z,4968
2018-08-03T09:33:37.115Z,4960
2018-08-03T09:34:02.631Z,4948
2018-08-03T09:34:28.152Z,4944
2018-08-03T09:34:53.602Z,4936
2018-08-03T09:35:19.104Z,4940
2018-08-03T09:35:44.579Z,4936
2018-08-03T09:36:10.104Z,4932
2018-08-03T09:36:35.584Z,4924
2018-08-03T09:37:01.090Z,4924
2018-08-03T09:37:26.587Z,4916
2018-08-03T09:37:52.107Z,4900
2018-08-03T09:38:17.624Z,4892
2018-08-03T09:38:43.152Z,4888
2018-08-03T09:40:02.105Z,4868
2018-08-03T09:40:27.607Z,4864
2018-08-03T09:40:53.102Z,4856
2018-08-03T09:41:18.619Z,4844
2018-08-03T09:41:44.144Z,4836
2018-08-03T09:42:09.588Z,4824
2018-08-03T09:42:35.078Z,4808
2018-08-03T09:43:00.578Z,4796
2018-08-03T09:43:26.041Z,4784
2018-08-03T09:43:51.537Z,4776
2018-08-03T09:44:17.001Z,4772
2018-08-03T09:44:42.514Z,4756
2018-08-03T09:45:08.014Z,4756
2018-08-03T09:45:33.521Z,4748
2018-08-03T09:45:59.035Z,4736
2018-08-03T09:46:24.515Z,4728
2018-08-03T09:46:50.003Z,4724
2018-08-03T09:47:15.502Z,4720
2018-08-03T09:47:41.014Z,4704
2018-08-03T09:48:06.491Z,4700
2018-08-03T09:48:31.978Z,4696
2018-08-03T09:48:57.509Z,4684
2018-08-03T09:49:23.012Z,4684
2018-08-03T09:49:48.499Z,4684
2018-08-03T09:50:13.958Z,4680
2018-08-03T09:50:39.430Z,4684
2018-08-03T09:51:06.341Z,4680
2018-08-03T09:51:31.854Z,4676
2018-08-03T09:51:57.334Z,4668
2018-08-03T09:52:22.834Z,4668
2018-08-03T09:52:48.321Z,4668
2018-08-03T09:53:13.819Z,4660
2018-08-03T09:53:39.288Z,4660
2018-08-03T09:54:04.997Z,4660
2018-08-03T09:55:13.933Z,4660
2018-08-03T09:55:39.420Z,4656
2018-08-03T09:56:05.074Z,4652
2018-08-03T09:56:30.560Z,4644
2018-08-03T09:56:56.030Z,4640
2018-08-03T09:57:21.438Z,4636
2018-08-03T09:57:46.904Z,4628
2018-08-03T09:58:12.475Z,4628
2018-08-03T09:58:37.962Z,4628
2018-08-03T09:59:03.475Z,4632
2018-08-03T09:59:28.902Z,4632
2018-08-03T09:59:54.405Z,4636
2018-08-03T10:00:19.917Z,4640
2018-08-03T10:00:45.510Z,4640